Lampang, Thailand
Current Conditions -  °F | °C
As of 10:00 AM on Monday 24 Nov 2014 (Local Time) from VTCL Reporting Station
Haze Haze  
Wind Chill: 72°   Ceiling: Unl
Heat Index: 72°   Visibility: 2.5mi
Dew Point: 70°   Wind: 0mph
Humidity: 94%   Direction: NA
Pressure: 30"   Gusts: NA
Location:  18.29°N, 99.48°E
Report Text: VTCL 240300Z 00000KT 4000 BR FEW015 22/21 Q1016 A3002INFO: F
Loading
Personal Weather Stations






























Interactive Weather Map New forecast layout! Learn more

10-Day Weather Forecast

Advertisements
Track Severe Weather on mobile